sensor_id;sensor_type;location;lat;lon;timestamp;temperature;humidity
69626;DHT22;56847;51.984;5.088;2023-03-26T00:01:40;11.30;81.80
69626;DHT22;56847;51.984;5.088;2023-03-26T00:04:12;11.20;81.90
69626;DHT22;56847;51.984;5.088;2023-03-26T00:06:39;11.30;82.00
69626;DHT22;56847;51.984;5.088;2023-03-26T00:09:09;11.30;82.10
69626;DHT22;56847;51.984;5.088;2023-03-26T00:11:42;11.30;82.20
69626;DHT22;56847;51.984;5.088;2023-03-26T00:14:11;11.30;82.20
69626;DHT22;56847;51.984;5.088;2023-03-26T00:16:41;11.30;82.30
69626;DHT22;56847;51.984;5.088;2023-03-26T00:19:09;11.30;82.30
69626;DHT22;56847;51.984;5.088;2023-03-26T00:21:40;11.40;82.40
69626;DHT22;56847;51.984;5.088;2023-03-26T00:24:12;11.40;82.40
69626;DHT22;56847;51.984;5.088;2023-03-26T00:26:43;11.30;82.40
69626;DHT22;56847;51.984;5.088;2023-03-26T00:29:11;11.30;82.30
69626;DHT22;56847;51.984;5.088;2023-03-26T00:31:42;11.30;82.40
69626;DHT22;56847;51.984;5.088;2023-03-26T00:34:12;11.30;82.50
69626;DHT22;56847;51.984;5.088;2023-03-26T00:36:47;11.30;82.60
69626;DHT22;56847;51.984;5.088;2023-03-26T00:39:21;11.30;82.80
69626;DHT22;56847;51.984;5.088;2023-03-26T00:41:49;11.30;82.90
69626;DHT22;56847;51.984;5.088;2023-03-26T00:44:20;11.40;82.90
69626;DHT22;56847;51.984;5.088;2023-03-26T00:46:47;11.40;83.00
69626;DHT22;56847;51.984;5.088;2023-03-26T00:49:14;11.30;82.80
69626;DHT22;56847;51.984;5.088;2023-03-26T00:51:42;11.30;82.90
69626;DHT22;56847;51.984;5.088;2023-03-26T00:54:09;11.30;83.00
69626;DHT22;56847;51.984;5.088;2023-03-26T00:56:36;11.30;83.10
69626;DHT22;56847;51.984;5.088;2023-03-26T00:59:04;11.30;83.10
69626;DHT22;56847;51.984;5.088;2023-03-26T01:01:31;11.30;83.20
69626;DHT22;56847;51.984;5.088;2023-03-26T01:04:26;11.40;83.20
69626;DHT22;56847;51.984;5.088;2023-03-26T01:06:59;11.40;83.20
69626;DHT22;56847;51.984;5.088;2023-03-26T01:09:32;11.40;83.20
69626;DHT22;56847;51.984;5.088;2023-03-26T01:12:02;11.40;83.20
69626;DHT22;56847;51.984;5.088;2023-03-26T01:14:30;11.40;83.10
69626;DHT22;56847;51.984;5.088;2023-03-26T01:17:02;11.40;83.10
69626;DHT22;56847;51.984;5.088;2023-03-26T01:22:24;11.40;83.10
69626;DHT22;56847;51.984;5.088;2023-03-26T01:24:52;11.40;83.10
69626;DHT22;56847;51.984;5.088;2023-03-26T01:27:45;11.50;83.00
69626;DHT22;56847;51.984;5.088;2023-03-26T01:38:36;11.50;83.40
69626;DHT22;56847;51.984;5.088;2023-03-26T01:41:07;11.60;83.40
69626;DHT22;56847;51.984;5.088;2023-03-26T01:43:47;11.70;83.20
69626;DHT22;56847;51.984;5.088;2023-03-26T01:46:20;11.70;83.10
69626;DHT22;56847;51.984;5.088;2023-03-26T01:48:48;11.70;83.10
69626;DHT22;56847;51.984;5.088;2023-03-26T01:51:29;11.70;83.10
69626;DHT22;56847;51.984;5.088;2023-03-26T01:53:57;11.70;83.00
69626;DHT22;56847;51.984;5.088;2023-03-26T01:56:30;11.70;82.90
69626;DHT22;56847;51.984;5.088;2023-03-26T02:02:24;11.70;82.60
69626;DHT22;56847;51.984;5.088;2023-03-26T02:08:02;11.60;82.80
69626;DHT22;56847;51.984;5.088;2023-03-26T02:10:34;11.60;82.80
69626;DHT22;56847;51.984;5.088;2023-03-26T02:13:03;11.50;82.70
69626;DHT22;56847;51.984;5.088;2023-03-26T02:15:33;11.50;82.70
69626;DHT22;56847;51.984;5.088;2023-03-26T02:18:01;11.50;82.60
69626;DHT22;56847;51.984;5.088;2023-03-26T02:20:29;11.50;82.60
69626;DHT22;56847;51.984;5.088;2023-03-26T02:22:57;11.50;82.70
69626;DHT22;56847;51.984;5.088;2023-03-26T02:25:24;11.40;82.60
69626;DHT22;56847;51.984;5.088;2023-03-26T02:27:52;11.40;82.90
69626;DHT22;56847;51.984;5.088;2023-03-26T02:30:23;11.50;82.80
69626;DHT22;56847;51.984;5.088;2023-03-26T02:32:57;11.50;82.90
69626;DHT22;56847;51.984;5.088;2023-03-26T02:35:33;11.50;82.90
69626;DHT22;56847;51.984;5.088;2023-03-26T02:38:04;11.50;82.80
69626;DHT22;56847;51.984;5.088;2023-03-26T02:40:32;11.50;82.80
69626;DHT22;56847;51.984;5.088;2023-03-26T02:42:59;11.50;82.90
69626;DHT22;56847;51.984;5.088;2023-03-26T02:45:28;11.50;82.90
69626;DHT22;56847;51.984;5.088;2023-03-26T02:48:18;11.50;82.90
69626;DHT22;56847;51.984;5.088;2023-03-26T02:50:57;11.50;82.70
69626;DHT22;56847;51.984;5.088;2023-03-26T02:53:44;11.50;82.80
69626;DHT22;56847;51.984;5.088;2023-03-26T02:56:31;11.60;83.00
69626;DHT22;56847;51.984;5.088;2023-03-26T02:59:20;11.60;83.00
69626;DHT22;56847;51.984;5.088;2023-03-26T03:02:00;11.60;83.10
69626;DHT22;56847;51.984;5.088;2023-03-26T03:04:30;11.70;83.10
69626;DHT22;56847;51.984;5.088;2023-03-26T03:07:00;11.70;82.90
69626;DHT22;56847;51.984;5.088;2023-03-26T03:09:28;11.70;82.70
69626;DHT22;56847;51.984;5.088;2023-03-26T03:12:15;11.70;82.60
69626;DHT22;56847;51.984;5.088;2023-03-26T03:14:42;11.70;82.70
69626;DHT22;56847;51.984;5.088;2023-03-26T03:17:09;11.70;82.60
69626;DHT22;56847;51.984;5.088;2023-03-26T03:19:36;11.70;82.60
69626;DHT22;56847;51.984;5.088;2023-03-26T03:22:03;11.70;82.60
69626;DHT22;56847;51.984;5.088;2023-03-26T03:24:31;11.70;82.50
69626;DHT22;56847;51.984;5.088;2023-03-26T03:26:59;11.60;82.50
69626;DHT22;56847;51.984;5.088;2023-03-26T03:29:34;11.60;82.60
69626;DHT22;56847;51.984;5.088;2023-03-26T03:32:25;11.70;82.60
69626;DHT22;56847;51.984;5.088;2023-03-26T03:34:57;11.70;82.60
69626;DHT22;56847;51.984;5.088;2023-03-26T03:37:24;11.70;82.70
69626;DHT22;56847;51.984;5.088;2023-03-26T03:39:54;11.70;82.70
69626;DHT22;56847;51.984;5.088;2023-03-26T03:42:23;11.80;82.50
69626;DHT22;56847;51.984;5.088;2023-03-26T03:44:53;11.70;82.40
69626;DHT22;56847;51.984;5.088;2023-03-26T03:47:46;11.70;82.40
69626;DHT22;56847;51.984;5.088;2023-03-26T03:50:18;11.70;82.50
69626;DHT22;56847;51.984;5.088;2023-03-26T03:53:05;11.70;82.50
69626;DHT22;56847;51.984;5.088;2023-03-26T03:55:33;11.80;82.70
69626;DHT22;56847;51.984;5.088;2023-03-26T03:58:04;11.80;82.50
69626;DHT22;56847;51.984;5.088;2023-03-26T04:00:31;11.80;82.40
69626;DHT22;56847;51.984;5.088;2023-03-26T04:03:19;11.80;82.30
69626;DHT22;56847;51.984;5.088;2023-03-26T04:05:59;11.90;82.40
69626;DHT22;56847;51.984;5.088;2023-03-26T04:08:27;11.90;82.30
69626;DHT22;56847;51.984;5.088;2023-03-26T04:10:58;11.90;82.30
69626;DHT22;56847;51.984;5.088;2023-03-26T04:13:50;11.90;82.30
69626;DHT22;56847;51.984;5.088;2023-03-26T04:16:28;11.90;82.30
69626;DHT22;56847;51.984;5.088;2023-03-26T04:18:56;11.90;82.30
69626;DHT22;56847;51.984;5.088;2023-03-26T04:21:27;11.90;82.20
69626;DHT22;56847;51.984;5.088;2023-03-26T04:23:56;11.90;82.20
69626;DHT22;56847;51.984;5.088;2023-03-26T04:26:43;11.90;82.30
69626;DHT22;56847;51.984;5.088;2023-03-26T04:29:13;11.90;82.40
69626;DHT22;56847;51.984;5.088;2023-03-26T04:31:44;11.90;82.20
69626;DHT22;56847;51.984;5.088;2023-03-26T04:34:21;11.90;82.20
69626;DHT22;56847;51.984;5.088;2023-03-26T04:37:08;11.90;82.20
69626;DHT22;56847;51.984;5.088;2023-03-26T04:39:43;11.90;82.10
69626;DHT22;56847;51.984;5.088;2023-03-26T04:42:37;11.80;82.10
69626;DHT22;56847;51.984;5.088;2023-03-26T04:45:28;11.80;82.00
69626;DHT22;56847;51.984;5.088;2023-03-26T04:47:57;11.80;81.80
69626;DHT22;56847;51.984;5.088;2023-03-26T04:50:25;11.70;81.90
69626;DHT22;56847;51.984;5.088;2023-03-26T04:52:58;11.70;81.90
69626;DHT22;56847;51.984;5.088;2023-03-26T04:59:15;11.60;82.00
69626;DHT22;56847;51.984;5.088;2023-03-26T05:01:43;11.60;82.10
69626;DHT22;56847;51.984;5.088;2023-03-26T05:04:14;11.60;82.20
69626;DHT22;56847;51.984;5.088;2023-03-26T05:06:42;11.60;82.20
69626;DHT22;56847;51.984;5.088;2023-03-26T05:09:21;11.60;82.10
69626;DHT22;56847;51.984;5.088;2023-03-26T05:12:08;11.60;82.00
69626;DHT22;56847;51.984;5.088;2023-03-26T05:14:48;11.60;82.00
69626;DHT22;56847;51.984;5.088;2023-03-26T05:17:23;11.60;82.00
69626;DHT22;56847;51.984;5.088;2023-03-26T05:19:53;11.50;82.00
69626;DHT22;56847;51.984;5.088;2023-03-26T05:22:21;11.50;82.10
69626;DHT22;56847;51.984;5.088;2023-03-26T05:25:17;11.50;82.00
69626;DHT22;56847;51.984;5.088;2023-03-26T05:27:44;11.60;81.90
69626;DHT22;56847;51.984;5.088;2023-03-26T05:30:14;11.50;81.90
69626;DHT22;56847;51.984;5.088;2023-03-26T05:32:47;11.50;81.90
69626;DHT22;56847;51.984;5.088;2023-03-26T05:35:18;11.50;81.80
69626;DHT22;56847;51.984;5.088;2023-03-26T05:37:52;11.50;82.00
69626;DHT22;56847;51.984;5.088;2023-03-26T05:40:22;11.50;81.90
69626;DHT22;56847;51.984;5.088;2023-03-26T05:42:58;11.50;81.90
69626;DHT22;56847;51.984;5.088;2023-03-26T05:45:42;11.50;82.00
69626;DHT22;56847;51.984;5.088;2023-03-26T05:48:35;11.50;82.10
69626;DHT22;56847;51.984;5.088;2023-03-26T05:51:05;11.40;82.10
69626;DHT22;56847;51.984;5.088;2023-03-26T05:53:32;11.40;82.00
69626;DHT22;56847;51.984;5.088;2023-03-26T05:56:31;11.40;82.00
69626;DHT22;56847;51.984;5.088;2023-03-26T05:59:16;11.40;82.00
69626;DHT22;56847;51.984;5.088;2023-03-26T06:01:43;11.40;82.00
69626;DHT22;56847;51.984;5.088;2023-03-26T06:04:35;11.40;82.10
69626;DHT22;56847;51.984;5.088;2023-03-26T06:07:33;11.40;82.10
69626;DHT22;56847;51.984;5.088;2023-03-26T06:10:09;11.40;82.20
69626;DHT22;56847;51.984;5.088;2023-03-26T06:12:44;11.40;82.30
69626;DHT22;56847;51.984;5.088;2023-03-26T06:15:17;11.40;82.10
69626;DHT22;56847;51.984;5.088;2023-03-26T06:18:04;11.40;82.20
69626;DHT22;56847;51.984;5.088;2023-03-26T06:20:58;11.40;82.30
69626;DHT22;56847;51.984;5.088;2023-03-26T06:23:54;11.40;82.30
69626;DHT22;56847;51.984;5.088;2023-03-26T06:26:34;11.40;82.40
69626;DHT22;56847;51.984;5.088;2023-03-26T06:29:22;11.40;82.40
69626;DHT22;56847;51.984;5.088;2023-03-26T06:31:51;11.40;82.40
69626;DHT22;56847;51.984;5.088;2023-03-26T06:34:24;11.40;82.40
69626;DHT22;56847;51.984;5.088;2023-03-26T06:36:51;11.40;82.40
69626;DHT22;56847;51.984;5.088;2023-03-26T06:39:20;11.50;82.40
69626;DHT22;56847;51.984;5.088;2023-03-26T06:42:16;11.50;82.30
69626;DHT22;56847;51.984;5.088;2023-03-26T06:45:04;11.50;82.50
69626;DHT22;56847;51.984;5.088;2023-03-26T06:47:50;11.50;82.60
69626;DHT22;56847;51.984;5.088;2023-03-26T06:50:35;11.60;82.50
69626;DHT22;56847;51.984;5.088;2023-03-26T06:53:21;11.60;82.40
69626;DHT22;56847;51.984;5.088;2023-03-26T06:56:13;11.60;82.50
69626;DHT22;56847;51.984;5.088;2023-03-26T06:59:01;11.60;82.50
69626;DHT22;56847;51.984;5.088;2023-03-26T07:02:03;11.60;82.40
69626;DHT22;56847;51.984;5.088;2023-03-26T07:04:49;11.60;82.50
69626;DHT22;56847;51.984;5.088;2023-03-26T07:07:35;11.70;82.70
69626;DHT22;56847;51.984;5.088;2023-03-26T07:10:30;11.70;82.60
69626;DHT22;56847;51.984;5.088;2023-03-26T07:13:08;11.80;82.60
69626;DHT22;56847;51.984;5.088;2023-03-26T07:15:56;11.80;82.70
69626;DHT22;56847;51.984;5.088;2023-03-26T07:18:40;11.80;82.70
69626;DHT22;56847;51.984;5.088;2023-03-26T07:21:10;11.90;82.70
69626;DHT22;56847;51.984;5.088;2023-03-26T07:23:38;11.90;82.60
69626;DHT22;56847;51.984;5.088;2023-03-26T07:45:43;11.90;81.80
69626;DHT22;56847;51.984;5.088;2023-03-26T07:48:23;11.90;81.80
69626;DHT22;56847;51.984;5.088;2023-03-26T07:51:15;11.90;81.90
69626;DHT22;56847;51.984;5.088;2023-03-26T07:53:51;12.00;82.20
69626;DHT22;56847;51.984;5.088;2023-03-26T07:56:54;12.00;82.40
69626;DHT22;56847;51.984;5.088;2023-03-26T07:59:58;12.10;82.30
69626;DHT22;56847;51.984;5.088;2023-03-26T08:03:01;12.20;82.20
69626;DHT22;56847;51.984;5.088;2023-03-26T08:09:44;12.30;82.30
69626;DHT22;56847;51.984;5.088;2023-03-26T08:12:54;12.40;82.40
69626;DHT22;56847;51.984;5.088;2023-03-26T08:21:09;12.70;82.10
69626;DHT22;56847;51.984;5.088;2023-03-26T08:24:12;12.80;82.00
69626;DHT22;56847;51.984;5.088;2023-03-26T08:32:12;12.80;81.70
69626;DHT22;56847;51.984;5.088;2023-03-26T08:34:40;12.80;81.40
69626;DHT22;56847;51.984;5.088;2023-03-26T08:37:10;12.80;81.30
69626;DHT22;56847;51.984;5.088;2023-03-26T08:39:41;12.80;81.10
69626;DHT22;56847;51.984;5.088;2023-03-26T08:45:26;12.70;81.00
69626;DHT22;56847;51.984;5.088;2023-03-26T08:56:28;12.50;81.20
69626;DHT22;56847;51.984;5.088;2023-03-26T08:59:25;12.50;81.30
69626;DHT22;56847;51.984;5.088;2023-03-26T09:14:43;12.40;81.40
69626;DHT22;56847;51.984;5.088;2023-03-26T09:29:19;12.40;81.30
69626;DHT22;56847;51.984;5.088;2023-03-26T09:52:50;12.30;81.60
69626;DHT22;56847;51.984;5.088;2023-03-26T09:58:41;12.50;82.10
69626;DHT22;56847;51.984;5.088;2023-03-26T10:04:32;12.70;82.20
69626;DHT22;56847;51.984;5.088;2023-03-26T10:14:53;12.70;81.70
69626;DHT22;56847;51.984;5.088;2023-03-26T10:17:43;12.70;81.80
69626;DHT22;56847;51.984;5.088;2023-03-26T10:20:26;12.80;81.70
69626;DHT22;56847;51.984;5.088;2023-03-26T10:23:06;12.80;81.50
69626;DHT22;56847;51.984;5.088;2023-03-26T10:28:27;12.70;81.00
69626;DHT22;56847;51.984;5.088;2023-03-26T10:38:00;12.50;81.20
69626;DHT22;56847;51.984;5.088;2023-03-26T10:40:06;12.50;81.40
69626;DHT22;56847;51.984;5.088;2023-03-26T10:51:58;12.50;81.90
69626;DHT22;56847;51.984;5.088;2023-03-26T10:56:57;12.50;81.80
69626;DHT22;56847;51.984;5.088;2023-03-26T10:59:26;12.50;81.70
69626;DHT22;56847;51.984;5.088;2023-03-26T11:02:18;12.40;81.90
69626;DHT22;56847;51.984;5.088;2023-03-26T11:05:27;12.50;82.00
69626;DHT22;56847;51.984;5.088;2023-03-26T11:08:04;12.40;81.50
69626;DHT22;56847;51.984;5.088;2023-03-26T11:26:16;12.30;81.40
69626;DHT22;56847;51.984;5.088;2023-03-26T11:34:41;12.30;80.90
69626;DHT22;56847;51.984;5.088;2023-03-26T11:37:41;12.30;81.20
69626;DHT22;56847;51.984;5.088;2023-03-26T11:40:17;12.40;80.90
69626;DHT22;56847;51.984;5.088;2023-03-26T11:43:11;12.30;79.80
69626;DHT22;56847;51.984;5.088;2023-03-26T11:45:44;12.20;80.30
69626;DHT22;56847;51.984;5.088;2023-03-26T11:48:38;12.10;80.10
69626;DHT22;56847;51.984;5.088;2023-03-26T11:51:35;12.00;80.00
69626;DHT22;56847;51.984;5.088;2023-03-26T11:54:04;11.90;80.00
69626;DHT22;56847;51.984;5.088;2023-03-26T11:56:56;11.70;79.70
69626;DHT22;56847;51.984;5.088;2023-03-26T11:59:56;11.70;80.30
69626;DHT22;56847;51.984;5.088;2023-03-26T12:02:57;11.70;80.90
69626;DHT22;56847;51.984;5.088;2023-03-26T12:05:27;11.70;80.80
69626;DHT22;56847;51.984;5.088;2023-03-26T12:08:14;11.70;80.70
69626;DHT22;56847;51.984;5.088;2023-03-26T12:10:50;11.70;81.00
69626;DHT22;56847;51.984;5.088;2023-03-26T12:13:41;11.80;80.80
69626;DHT22;56847;51.984;5.088;2023-03-26T12:16:15;11.70;80.40
69626;DHT22;56847;51.984;5.088;2023-03-26T12:18:44;11.70;80.50
69626;DHT22;56847;51.984;5.088;2023-03-26T12:21:15;11.70;81.20
69626;DHT22;56847;51.984;5.088;2023-03-26T12:23:43;11.70;81.20
69626;DHT22;56847;51.984;5.088;2023-03-26T12:26:18;11.70;81.10
69626;DHT22;56847;51.984;5.088;2023-03-26T12:28:49;11.70;81.00
69626;DHT22;56847;51.984;5.088;2023-03-26T12:31:17;11.70;80.80
69626;DHT22;56847;51.984;5.088;2023-03-26T12:34:04;11.70;80.90
69626;DHT22;56847;51.984;5.088;2023-03-26T12:36:33;11.80;80.60
69626;DHT22;56847;51.984;5.088;2023-03-26T12:39:32;11.80;80.20
69626;DHT22;56847;51.984;5.088;2023-03-26T12:42:29;11.80;79.80
69626;DHT22;56847;51.984;5.088;2023-03-26T12:45:41;11.80;79.30
69626;DHT22;56847;51.984;5.088;2023-03-26T12:48:11;11.80;79.40
69626;DHT22;56847;51.984;5.088;2023-03-26T12:51:10;11.70;80.00
69626;DHT22;56847;51.984;5.088;2023-03-26T12:56:30;11.70;80.70
69626;DHT22;56847;51.984;5.088;2023-03-26T13:01:57;11.90;80.70
69626;DHT22;56847;51.984;5.088;2023-03-26T13:10:54;12.10;79.90
69626;DHT22;56847;51.984;5.088;2023-03-26T13:13:41;12.20;80.40
69626;DHT22;56847;51.984;5.088;2023-03-26T13:17:01;12.20;80.00
69626;DHT22;56847;51.984;5.088;2023-03-26T13:35:18;12.50;80.90
69626;DHT22;56847;51.984;5.088;2023-03-26T13:38:04;12.70;80.10
69626;DHT22;56847;51.984;5.088;2023-03-26T13:41:01;12.80;79.10
69626;DHT22;56847;51.984;5.088;2023-03-26T13:44:00;12.90;78.30
69626;DHT22;56847;51.984;5.088;2023-03-26T13:46:43;12.90;77.30
69626;DHT22;56847;51.984;5.088;2023-03-26T13:49:19;12.90;77.80
69626;DHT22;56847;51.984;5.088;2023-03-26T13:51:59;12.90;76.40
69626;DHT22;56847;51.984;5.088;2023-03-26T13:57:21;12.90;76.20
69626;DHT22;56847;51.984;5.088;2023-03-26T14:00:04;13.00;74.70
69626;DHT22;56847;51.984;5.088;2023-03-26T14:02:42;13.00;75.00
69626;DHT22;56847;51.984;5.088;2023-03-26T14:07:51;13.10;74.00
69626;DHT22;56847;51.984;5.088;2023-03-26T14:23:15;13.70;74.80
69626;DHT22;56847;51.984;5.088;2023-03-26T14:26:14;13.90;73.90
69626;DHT22;56847;51.984;5.088;2023-03-26T14:31:50;14.10;72.30
69626;DHT22;56847;51.984;5.088;2023-03-26T14:47:06;13.80;68.90
69626;DHT22;56847;51.984;5.088;2023-03-26T14:52:52;13.70;68.90
69626;DHT22;56847;51.984;5.088;2023-03-26T14:58:15;13.60;67.60
69626;DHT22;56847;51.984;5.088;2023-03-26T15:01:23;13.50;66.80
69626;DHT22;56847;51.984;5.088;2023-03-26T15:15:35;13.50;67.10
69626;DHT22;56847;51.984;5.088;2023-03-26T15:32:12;13.40;66.40
69626;DHT22;56847;51.984;5.088;2023-03-26T15:38:17;13.50;65.90
69626;DHT22;56847;51.984;5.088;2023-03-26T15:41:27;13.50;65.70
69626;DHT22;56847;51.984;5.088;2023-03-26T15:49:41;13.10;64.90
69626;DHT22;56847;51.984;5.088;2023-03-26T16:00:25;12.90;65.80
69626;DHT22;56847;51.984;5.088;2023-03-26T16:08:53;12.70;64.50
69626;DHT22;56847;51.984;5.088;2023-03-26T16:17:04;12.50;63.00
69626;DHT22;56847;51.984;5.088;2023-03-26T16:22:11;12.30;62.40
69626;DHT22;56847;51.984;5.088;2023-03-26T16:24:44;12.20;63.10
69626;DHT22;56847;51.984;5.088;2023-03-26T16:33:02;12.00;62.90
69626;DHT22;56847;51.984;5.088;2023-03-26T16:35:36;11.80;62.50
69626;DHT22;56847;51.984;5.088;2023-03-26T16:38:13;11.80;62.50
69626;DHT22;56847;51.984;5.088;2023-03-26T16:41:04;11.70;62.70
69626;DHT22;56847;51.984;5.088;2023-03-26T16:49:25;11.70;62.60
69626;DHT22;56847;51.984;5.088;2023-03-26T17:13:01;12.70;60.80
69626;DHT22;56847;51.984;5.088;2023-03-26T17:22:18;12.60;62.00
69626;DHT22;56847;51.984;5.088;2023-03-26T17:28:32;12.20;59.80
69626;DHT22;56847;51.984;5.088;2023-03-26T17:32:13;11.90;60.50
69626;DHT22;56847;51.984;5.088;2023-03-26T17:35:06;11.70;60.80
69626;DHT22;56847;51.984;5.088;2023-03-26T17:37:43;11.60;60.30
69626;DHT22;56847;51.984;5.088;2023-03-26T17:41:13;11.40;59.50
69626;DHT22;56847;51.984;5.088;2023-03-26T17:43:55;11.30;60.10
69626;DHT22;56847;51.984;5.088;2023-03-26T17:49:34;11.00;60.50
69626;DHT22;56847;51.984;5.088;2023-03-26T17:52:29;10.90;61.10
69626;DHT22;56847;51.984;5.088;2023-03-26T17:55:26;10.90;61.80
69626;DHT22;56847;51.984;5.088;2023-03-26T17:58:55;10.80;62.10
69626;DHT22;56847;51.984;5.088;2023-03-26T18:01:44;10.70;58.80
69626;DHT22;56847;51.984;5.088;2023-03-26T18:04:36;10.60;59.90
69626;DHT22;56847;51.984;5.088;2023-03-26T18:22:51;10.10;60.70
69626;DHT22;56847;51.984;5.088;2023-03-26T18:25:37;10.00;59.90
69626;DHT22;56847;51.984;5.088;2023-03-26T18:28:14;9.90;60.60
69626;DHT22;56847;51.984;5.088;2023-03-26T18:30:46;9.90;60.10
69626;DHT22;56847;51.984;5.088;2023-03-26T18:33:24;9.80;59.60
69626;DHT22;56847;51.984;5.088;2023-03-26T18:36:26;9.80;60.40
69626;DHT22;56847;51.984;5.088;2023-03-26T18:39:12;9.80;59.90
69626;DHT22;56847;51.984;5.088;2023-03-26T18:41:46;9.80;60.00
69626;DHT22;56847;51.984;5.088;2023-03-26T18:44:42;9.90;60.20
69626;DHT22;56847;51.984;5.088;2023-03-26T18:47:19;9.90;60.90
69626;DHT22;56847;51.984;5.088;2023-03-26T18:49:59;9.90;61.70
69626;DHT22;56847;51.984;5.088;2023-03-26T18:52:32;10.00;61.20
69626;DHT22;56847;51.984;5.088;2023-03-26T18:55:14;10.00;60.60
69626;DHT22;56847;51.984;5.088;2023-03-26T18:57:49;10.00;60.60
69626;DHT22;56847;51.984;5.088;2023-03-26T19:00:26;10.00;59.60
69626;DHT22;56847;51.984;5.088;2023-03-26T19:03:10;10.10;59.90
69626;DHT22;56847;51.984;5.088;2023-03-26T19:05:47;10.00;60.20
69626;DHT22;56847;51.984;5.088;2023-03-26T19:08:20;10.00;60.40
69626;DHT22;56847;51.984;5.088;2023-03-26T19:10:56;10.00;59.70
69626;DHT22;56847;51.984;5.088;2023-03-26T19:13:31;10.00;60.80
69626;DHT22;56847;51.984;5.088;2023-03-26T19:16:11;10.00;60.80
69626;DHT22;56847;51.984;5.088;2023-03-26T19:18:42;10.00;61.40
69626;DHT22;56847;51.984;5.088;2023-03-26T19:21:10;10.00;60.60
69626;DHT22;56847;51.984;5.088;2023-03-26T19:23:39;10.00;59.90
69626;DHT22;56847;51.984;5.088;2023-03-26T19:26:08;9.90;60.40
69626;DHT22;56847;51.984;5.088;2023-03-26T19:28:44;9.90;59.80
69626;DHT22;56847;51.984;5.088;2023-03-26T19:36:53;9.70;60.40
69626;DHT22;56847;51.984;5.088;2023-03-26T19:39:40;9.60;60.60
69626;DHT22;56847;51.984;5.088;2023-03-26T19:44:49;9.50;60.50
69626;DHT22;56847;51.984;5.088;2023-03-26T19:47:25;9.50;60.70
69626;DHT22;56847;51.984;5.088;2023-03-26T19:50:26;9.50;60.50
69626;DHT22;56847;51.984;5.088;2023-03-26T19:53:09;9.50;60.30
69626;DHT22;56847;51.984;5.088;2023-03-26T19:58:41;9.50;60.10
69626;DHT22;56847;51.984;5.088;2023-03-26T20:01:24;9.50;59.60
69626;DHT22;56847;51.984;5.088;2023-03-26T20:03:58;9.40;60.50
69626;DHT22;56847;51.984;5.088;2023-03-26T20:06:27;9.40;60.50
69626;DHT22;56847;51.984;5.088;2023-03-26T20:09:20;9.40;60.80
69626;DHT22;56847;51.984;5.088;2023-03-26T20:11:50;9.30;60.50
69626;DHT22;56847;51.984;5.088;2023-03-26T20:14:22;9.30;60.40
69626;DHT22;56847;51.984;5.088;2023-03-26T20:16:57;9.30;60.70
69626;DHT22;56847;51.984;5.088;2023-03-26T20:19:26;9.30;61.10
69626;DHT22;56847;51.984;5.088;2023-03-26T20:21:56;9.30;60.20
69626;DHT22;56847;51.984;5.088;2023-03-26T20:24:28;9.30;59.10
69626;DHT22;56847;51.984;5.088;2023-03-26T20:26:56;9.30;59.70
69626;DHT22;56847;51.984;5.088;2023-03-26T20:29:25;9.20;59.70
69626;DHT22;56847;51.984;5.088;2023-03-26T20:31:56;9.20;60.20
69626;DHT22;56847;51.984;5.088;2023-03-26T20:34:24;9.20;60.70
69626;DHT22;56847;51.984;5.088;2023-03-26T20:36:52;9.20;61.30
69626;DHT22;56847;51.984;5.088;2023-03-26T20:39:27;9.20;60.70
69626;DHT22;56847;51.984;5.088;2023-03-26T20:41:56;9.20;60.70
69626;DHT22;56847;51.984;5.088;2023-03-26T20:44:23;9.20;61.30
69626;DHT22;56847;51.984;5.088;2023-03-26T20:46:53;9.30;61.00
69626;DHT22;56847;51.984;5.088;2023-03-26T20:49:41;9.30;61.30
69626;DHT22;56847;51.984;5.088;2023-03-26T20:52:11;9.30;61.20
69626;DHT22;56847;51.984;5.088;2023-03-26T20:54:39;9.30;61.80
69626;DHT22;56847;51.984;5.088;2023-03-26T20:57:10;9.30;61.50
69626;DHT22;56847;51.984;5.088;2023-03-26T20:59:40;9.30;61.40
69626;DHT22;56847;51.984;5.088;2023-03-26T21:02:14;9.30;61.40
69626;DHT22;56847;51.984;5.088;2023-03-26T21:04:43;9.20;61.20
69626;DHT22;56847;51.984;5.088;2023-03-26T21:07:13;9.20;61.20
69626;DHT22;56847;51.984;5.088;2023-03-26T21:09:46;9.10;61.50
69626;DHT22;56847;51.984;5.088;2023-03-26T21:12:26;9.10;61.70
69626;DHT22;56847;51.984;5.088;2023-03-26T21:14:59;9.00;61.80
69626;DHT22;56847;51.984;5.088;2023-03-26T21:17:31;9.00;61.70
69626;DHT22;56847;51.984;5.088;2023-03-26T21:19:58;9.00;61.90
69626;DHT22;56847;51.984;5.088;2023-03-26T21:26:05;8.90;61.80
69626;DHT22;56847;51.984;5.088;2023-03-26T21:28:47;9.00;62.00
69626;DHT22;56847;51.984;5.088;2023-03-26T21:31:20;9.00;62.00
69626;DHT22;56847;51.984;5.088;2023-03-26T21:33:49;9.00;62.00
69626;DHT22;56847;51.984;5.088;2023-03-26T21:36:17;9.10;62.10
69626;DHT22;56847;51.984;5.088;2023-03-26T21:38:51;9.10;61.90
69626;DHT22;56847;51.984;5.088;2023-03-26T21:44:09;9.00;62.50
69626;DHT22;56847;51.984;5.088;2023-03-26T21:46:40;9.00;62.50
69626;DHT22;56847;51.984;5.088;2023-03-26T21:49:07;9.10;62.10
69626;DHT22;56847;51.984;5.088;2023-03-26T21:51:38;9.10;61.90
69626;DHT22;56847;51.984;5.088;2023-03-26T21:57:01;9.10;62.50
69626;DHT22;56847;51.984;5.088;2023-03-26T22:02:30;9.00;62.40
69626;DHT22;56847;51.984;5.088;2023-03-26T22:05:13;8.90;62.80
69626;DHT22;56847;51.984;5.088;2023-03-26T22:10:13;8.80;63.60
69626;DHT22;56847;51.984;5.088;2023-03-26T22:12:40;8.70;63.50
69626;DHT22;56847;51.984;5.088;2023-03-26T22:15:08;8.70;63.80
69626;DHT22;56847;51.984;5.088;2023-03-26T22:17:37;8.70;64.00
69626;DHT22;56847;51.984;5.088;2023-03-26T22:20:09;8.70;64.10
69626;DHT22;56847;51.984;5.088;2023-03-26T22:22:39;8.70;64.30
69626;DHT22;56847;51.984;5.088;2023-03-26T22:25:07;8.50;65.70
69626;DHT22;56847;51.984;5.088;2023-03-26T22:27:38;8.40;66.10
69626;DHT22;56847;51.984;5.088;2023-03-26T22:30:11;8.20;66.20
69626;DHT22;56847;51.984;5.088;2023-03-26T22:32:39;8.10;66.40
69626;DHT22;56847;51.984;5.088;2023-03-26T22:35:07;8.10;67.60
69626;DHT22;56847;51.984;5.088;2023-03-26T22:37:35;8.00;67.60
69626;DHT22;56847;51.984;5.088;2023-03-26T22:40:04;8.00;68.10
69626;DHT22;56847;51.984;5.088;2023-03-26T22:42:37;8.10;68.40
69626;DHT22;56847;51.984;5.088;2023-03-26T22:45:04;8.10;68.80
69626;DHT22;56847;51.984;5.088;2023-03-26T22:47:35;8.10;69.20
69626;DHT22;56847;51.984;5.088;2023-03-26T22:50:06;8.10;69.40
69626;DHT22;56847;51.984;5.088;2023-03-26T22:52:34;8.20;69.60
69626;DHT22;56847;51.984;5.088;2023-03-26T22:55:02;8.20;69.80
69626;DHT22;56847;51.984;5.088;2023-03-26T22:57:31;8.20;70.00
69626;DHT22;56847;51.984;5.088;2023-03-26T22:59:58;8.20;70.10
69626;DHT22;56847;51.984;5.088;2023-03-26T23:02:44;8.10;70.20